»·PEaware :: N520PL KAWO-KBLI

N520PL :: KAWO-KBLI

FLIGHT INFORMATION

Flight Status: Arrived
Operator: Privately registered:
United States
More flights under this callsign
Pilot: Isaac A. (44038)
Aircraft: CESSNA 172 SKYHAWK
(C172)
More flights by this aircraft type
Origin: KAWO Arlington Mun
United States
Destination: KBLI Bellingham Intl
United States
More flights between these airports :: More routes between these airports
Route: SECOG
File this flight plan on PilotEdge
Remarks: ARLIN2 departure, ILS 16 @ KBLI with PT
Altitude:
(Current/Filed)
5,000ft
Speed:
(Current/Filed)
100kts
Departed: 15-Aug-23 05:29 PM
Arrived: 15-Aug-23 06:12 PM
Distance/Time
Traveled:
41nm/0:43
Distance/Time
To Go:
Arrived

Flight Plot

Page will automatically refresh every two minutes.

Flight plan parsing failed; only flown route is shown


Map Options




Map Legend


Flown Route
Filed Route
Departure Airport
Arrival Airport
Navaid (VOR, NDB)
Fix

Horizontal Profiles

Position Reports

Time Latitude Longitude Heading Altitude Ground
Speed
15-Aug-23 17:02 48.159862 -122.153710 267 132ft 0kts
15-Aug-23 17:03 48.159862 -122.153711 267 132ft 0kts
15-Aug-23 17:04 48.159862 -122.153710 267 132ft 0kts
15-Aug-23 17:05 48.159861 -122.153718 267 132ft 0kts
15-Aug-23 17:06 48.159757 -122.154207 208 132ft 4kts
15-Aug-23 17:07 48.156070 -122.154158 177 129ft 18kts
15-Aug-23 17:08 48.155160 -122.154346 280 128ft 0kts
15-Aug-23 17:09 48.155160 -122.154346 280 128ft 0kts
15-Aug-23 17:10 48.155160 -122.154346 280 128ft 0kts
15-Aug-23 17:11 48.155160 -122.154346 280 128ft 0kts
15-Aug-23 17:12 48.155160 -122.154346 280 128ft 0kts
15-Aug-23 17:13 48.155160 -122.154346 280 128ft 0kts
15-Aug-23 17:14 48.155160 -122.154346 280 128ft 0kts
15-Aug-23 17:15 48.155160 -122.154346 280 128ft 0kts
15-Aug-23 17:16 48.155160 -122.154346 280 128ft 0kts
15-Aug-23 17:17 48.155160 -122.154346 280 128ft 0kts
15-Aug-23 17:18 48.155160 -122.154346 280 128ft 0kts
15-Aug-23 17:19 48.155160 -122.154346 280 128ft 0kts
15-Aug-23 17:20 48.155160 -122.154346 280 128ft 0kts
15-Aug-23 17:21 48.155160 -122.154346 280 128ft 0kts
15-Aug-23 17:22 48.155160 -122.154346 280 128ft 0kts
15-Aug-23 17:23 48.155160 -122.154346 280 128ft 0kts
15-Aug-23 17:24 48.155160 -122.154346 280 128ft 0kts
15-Aug-23 17:25 48.155160 -122.154346 280 128ft 0kts
15-Aug-23 17:26 48.155160 -122.154346 280 128ft 0kts
15-Aug-23 17:27 48.155285 -122.155482 274 128ft 8kts
15-Aug-23 17:28 48.166187 -122.157104 355 408ft 72kts
15-Aug-23 17:29 48.185362 -122.159069 351 1236ft 68kts
15-Aug-23 17:30 48.203961 -122.166504 341 1968ft 71kts
15-Aug-23 17:31 48.222340 -122.175431 339 2724ft 69kts
15-Aug-23 17:32 48.241569 -122.183290 343 3381ft 80kts
15-Aug-23 17:33 48.262998 -122.192623 340 4065ft 83kts
15-Aug-23 17:34 48.285428 -122.205266 333 4715ft 90kts
15-Aug-23 17:35 48.310622 -122.215051 332 5290ft 94kts
15-Aug-23 17:36 48.337583 -122.228388 339 5340ft 100kts
15-Aug-23 17:37 48.365117 -122.242707 335 5282ft 107kts
15-Aug-23 17:38 48.394571 -122.254433 343 5212ft 109kts
15-Aug-23 17:39 48.422718 -122.269861 339 5205ft 107kts
15-Aug-23 17:40 48.451297 -122.281561 334 5243ft 106kts
15-Aug-23 17:41 48.479895 -122.295177 337 5282ft 107kts
15-Aug-23 17:42 48.508999 -122.307733 335 5322ft 105kts
15-Aug-23 17:43 48.537458 -122.320931 345 5361ft 104kts
15-Aug-23 17:44 48.566673 -122.336349 340 5273ft 110kts
15-Aug-23 17:45 48.597096 -122.348992 332 5256ft 108kts
15-Aug-23 17:46 48.626558 -122.363460 335 5214ft 109kts
15-Aug-23 17:47 48.656124 -122.377819 335 5227ft 108kts
15-Aug-23 17:48 48.686167 -122.390739 338 5249ft 108kts
15-Aug-23 17:49 48.715618 -122.405639 337 5264ft 108kts
15-Aug-23 17:50 48.745194 -122.419288 335 5282ft 108kts
15-Aug-23 17:51 48.774996 -122.433882 335 5236ft 111kts
15-Aug-23 17:52 48.804994 -122.447753 344 5219ft 112kts
15-Aug-23 17:53 48.834915 -122.461305 337 5200ft 110kts
15-Aug-23 17:54 48.864455 -122.475801 331 5212ft 108kts
15-Aug-23 17:55 48.894098 -122.488825 340 5229ft 110kts
15-Aug-23 17:56 48.923197 -122.502997 334 5293ft 108kts
15-Aug-23 17:57 48.953095 -122.516549 336 5277ft 110kts
15-Aug-23 17:58 48.979789 -122.530013 336 5145ft 93kts
15-Aug-23 17:59 49.003440 -122.543299 310 4952ft 86kts
15-Aug-23 18:00 49.022148 -122.568423 314 4287ft 86kts
15-Aug-23 18:01 49.026964 -122.544460 178 3456ft 92kts
15-Aug-23 18:02 49.001788 -122.537710 183 2563ft 87kts
15-Aug-23 18:03 48.976836 -122.536032 182 2066ft 87kts
15-Aug-23 18:04 48.952380 -122.535907 185 2077ft 86kts
15-Aug-23 18:05 48.928019 -122.536461 185 2130ft 87kts
15-Aug-23 18:06 48.902721 -122.537802 191 2156ft 88kts
15-Aug-23 18:07 48.877015 -122.537703 184 1704ft 87kts
15-Aug-23 18:08 48.851144 -122.537189 186 1202ft 89kts
15-Aug-23 18:09 48.825574 -122.537899 186 664ft 88kts
15-Aug-23 18:10 48.806046 -122.537819 177 322ft 60kts
15-Aug-23 18:11 48.797191 -122.537520 181 159ft 12kts
15-Aug-23 18:12 48.796962 -122.536232 62 158ft 0kts
15-Aug-23 18:13 48.796962 -122.536232 62 158ft 0kts
15-Aug-23 18:14 48.796962 -122.536231 62 158ft 0kts
15-Aug-23 18:15 48.795982 -122.535097 182 158ft 8kts
15-Aug-23 18:16 48.794033 -122.533251 150 158ft 8kts
15-Aug-23 18:17 48.793279 -122.532959 236 159ft 0kts
15-Aug-23 18:18 48.793278 -122.532959 236 159ft 0kts

Navigation Log

Ident Type
Flight plan parsing failed, navigation log unavailable